CheckWX is a tool to help pilots better visualize weather data.  It is not intended as a substitute for an official pre-flight weather briefing.

09:43:20 UTC

KNAK METAR
United States Naval Academy
Annapolis, Maryland, USA
Current

49 mins ago

KNAK 150854Z AUTO 00000KT 10SM BKN090 22/18 A3009 RMK AO2 SLP193 T02220183 53012
Observed
Jul-15 @ 08:54 UTC
Visibility
10 SM
Flight Rules
VFR
Cloud Levels
  • Broken at 9,000' AGL
Temperature
22°C / 72°F
Dewpoint
18°C / 64°F
Humidity
78%
Altimeter
30.09" Hg
Pressure
1018.92 hPa
Previous

2 hours ago

KNAK 150754Z AUTO 30003KT 10SM CLR 23/19 A3008 RMK AO2 SLP186 T02280189
Observed
Jul-15 @ 07:54 UTC
Wind
  • 300° at 3 KTS
Visibility
10 SM
Flight Rules
VFR
Cloud Levels
  • Clear skies
Temperature
23°C / 73°F
Dewpoint
19°C / 66°F
Humidity
78%
Altimeter
30.08" Hg
Pressure
1018.62 hPa
Previous

3 hours ago

KNAK 150654Z AUTO 00000KT 10SM CLR 23/20 A3007 RMK AO2 SLP183 T02280200
Observed
Jul-15 @ 06:54 UTC
Visibility
10 SM
Flight Rules
VFR
Cloud Levels
  • Clear skies
Temperature
23°C / 73°F
Dewpoint
20°C / 68°F
Humidity
83%
Altimeter
30.07" Hg
Pressure
1018.32 hPa